createdAt,value
2018-09-12T00:00:32.527Z,101408.19
2018-09-12T00:03:02.298Z,101408.67
2018-09-12T00:05:30.700Z,101411.71
2018-09-12T00:07:59.113Z,101411.71
2018-09-12T00:10:27.483Z,101401.38
2018-09-12T00:12:55.880Z,101398.38
2018-09-12T00:15:24.260Z,101396.30
2018-09-12T00:17:52.639Z,101401.05
2018-09-12T00:20:21.091Z,101401.49
2018-09-12T00:22:49.489Z,101403.64
2018-09-12T00:25:17.947Z,101401.06
2018-09-12T00:27:46.358Z,101404.09
2018-09-12T00:30:14.809Z,101401.09
2018-09-12T00:32:43.173Z,101395.47
2018-09-12T00:35:11.577Z,101392.47
2018-09-12T00:37:40.051Z,101392.48
2018-09-12T00:40:08.921Z,101389.01
2018-09-12T00:42:37.304Z,101385.58
2018-09-12T00:45:05.823Z,101381.67
2018-09-12T00:47:34.216Z,101377.36
2018-09-12T00:50:03.154Z,101377.36
2018-09-12T00:52:31.609Z,101372.19
2018-09-12T00:55:00.336Z,101376.50
2018-09-12T00:57:28.710Z,101376.52
2018-09-12T00:59:57.159Z,101370.91
2018-09-12T01:02:25.639Z,101373.48
2018-09-12T01:04:55.088Z,101370.92
2018-09-12T01:07:23.568Z,101368.80
2018-09-12T01:09:51.939Z,101366.66
2018-09-12T01:12:20.326Z,101364.55
2018-09-12T01:14:48.712Z,101368.87
2018-09-12T01:17:17.216Z,101364.13
2018-09-12T01:19:46.248Z,101355.52
2018-09-12T01:22:15.208Z,101358.97
2018-09-12T01:24:43.632Z,101356.38
2018-09-12T01:27:12.007Z,101349.94
2018-09-12T01:29:40.418Z,101341.30
2018-09-12T01:32:09.488Z,101345.18
2018-09-12T01:34:37.905Z,101348.22
2018-09-12T01:37:06.336Z,101345.68
2018-09-12T01:39:34.760Z,101346.96
2018-09-12T01:42:03.146Z,101345.66
2018-09-12T01:44:31.921Z,101347.80
2018-09-12T01:47:00.356Z,101348.72
2018-09-12T01:49:28.787Z,101341.82
2018-09-12T01:51:57.186Z,101340.94
2018-09-12T01:54:25.677Z,101340.51
2018-09-12T01:56:54.052Z,101334.06
2018-09-12T01:59:22.497Z,101340.94
2018-09-12T02:01:50.905Z,101335.38
2018-09-12T02:04:19.288Z,101335.81
2018-09-12T02:06:47.696Z,101332.36
2018-09-12T02:09:16.289Z,101323.33
2018-09-12T02:11:44.709Z,101320.31
2018-09-12T02:14:13.120Z,101330.66
2018-09-12T02:16:41.556Z,101331.96
2018-09-12T02:19:09.964Z,101328.52
2018-09-12T02:21:38.360Z,101333.27
2018-09-12T02:24:06.470Z,101327.23
2018-09-12T02:26:34.995Z,101328.94
2018-09-12T02:29:03.456Z,101323.78
2018-09-12T02:31:31.833Z,101323.36
2018-09-12T02:34:00.266Z,101320.39
2018-09-12T02:36:29.751Z,101318.23
2018-09-12T02:38:59.572Z,101319.09
2018-09-12T02:41:28.036Z,101325.12
2018-09-12T02:43:56.448Z,101316.51
2018-09-12T02:46:24.871Z,101313.05
2018-09-12T02:48:53.453Z,101306.18
2018-09-12T02:51:21.821Z,101306.17
2018-09-12T02:53:50.228Z,101301.41
2018-09-12T02:56:19.111Z,101307.44
2018-09-12T02:58:48.928Z,101300.11
2018-09-12T03:01:19.192Z,101309.58
2018-09-12T03:03:47.603Z,101300.56
2018-09-12T03:06:16.008Z,101297.13
2018-09-12T03:08:44.409Z,101294.98
2018-09-12T03:11:12.842Z,101298.41
2018-09-12T03:13:41.228Z,101297.55
2018-09-12T03:16:09.677Z,101296.26
2018-09-12T03:18:38.127Z,101303.12
2018-09-12T03:21:07.654Z,101294.97
2018-09-12T03:23:35.942Z,101293.25
2018-09-12T03:26:04.323Z,101290.25
2018-09-12T03:28:32.758Z,101283.80
2018-09-12T03:31:01.156Z,101288.08
2018-09-12T03:33:29.563Z,101288.09
2018-09-12T03:35:57.982Z,101287.23
2018-09-12T03:38:26.381Z,101289.39
2018-09-12T03:40:54.772Z,101285.94
2018-09-12T03:43:23.177Z,101288.11
2018-09-12T03:45:51.557Z,101288.09
2018-09-12T03:48:19.970Z,101297.11
2018-09-12T03:50:48.656Z,101292.39
2018-09-12T03:53:17.095Z,101296.70
2018-09-12T03:55:45.520Z,101294.97
2018-09-12T03:58:13.981Z,101297.12
2018-09-12T04:00:42.389Z,101299.28
2018-09-12T04:03:10.797Z,101301.01
2018-09-12T04:05:39.256Z,101299.28
2018-09-12T04:08:07.639Z,101292.41
2018-09-12T04:10:36.700Z,101290.25
2018-09-12T04:13:05.134Z,101296.70
2018-09-12T04:15:33.523Z,101285.52
2018-09-12T04:18:01.951Z,101285.52
2018-09-12T04:20:30.349Z,101290.25
2018-09-12T04:22:58.802Z,101285.09
2018-09-12T04:25:27.213Z,101287.67
2018-09-12T04:27:56.076Z,101286.39
2018-09-12T04:30:24.633Z,101284.23
2018-09-12T04:32:52.992Z,101279.08
2018-09-12T04:35:21.395Z,101278.22
2018-09-12T04:37:49.837Z,101284.64
2018-09-12T04:40:18.254Z,101285.94
2018-09-12T04:42:46.703Z,101281.20
2018-09-12T04:45:15.097Z,101281.23
2018-09-12T04:47:43.488Z,101276.06
2018-09-12T04:50:11.855Z,101276.06
2018-09-12T04:52:40.289Z,101270.90
2018-09-12T04:55:09.560Z,101276.93
2018-09-12T04:57:37.920Z,101280.80
2018-09-12T05:00:06.471Z,101273.92
2018-09-12T05:02:35.050Z,101273.89
2018-09-12T05:05:03.456Z,101276.91
2018-09-12T05:07:32.033Z,101274.75
2018-09-12T05:10:00.465Z,101278.20
2018-09-12T05:12:28.848Z,101280.36
2018-09-12T05:14:57.459Z,101281.22
2018-09-12T05:17:25.856Z,101282.08
2018-09-12T05:19:54.252Z,101290.25
2018-09-12T05:22:22.617Z,101285.53
2018-09-12T05:24:51.417Z,101288.54
2018-09-12T05:27:19.814Z,101289.37
2018-09-12T05:29:48.312Z,101295.84
2018-09-12T05:32:16.692Z,101300.14
2018-09-12T05:34:45.095Z,101296.25
2018-09-12T05:37:13.723Z,101297.97
2018-09-12T05:39:42.641Z,101294.96
2018-09-12T05:42:11.028Z,101300.58
2018-09-12T05:44:40.407Z,101300.58
2018-09-12T05:47:08.832Z,101307.02
2018-09-12T05:49:37.263Z,101302.28
2018-09-12T05:52:05.809Z,101297.55
2018-09-12T05:54:34.239Z,101300.56
2018-09-12T05:57:03.451Z,101299.73
2018-09-12T05:59:31.864Z,101295.42
2018-09-12T06:02:00.265Z,101302.30
2018-09-12T06:04:28.682Z,101262.70
2018-09-12T06:06:57.145Z,101305.31
2018-09-12T06:09:25.561Z,101309.60
2018-09-12T06:11:53.993Z,101308.73
2018-09-12T06:14:22.433Z,101313.07
2018-09-12T06:16:50.802Z,101310.91
2018-09-12T06:19:19.240Z,101309.17
2018-09-12T06:21:47.648Z,101313.03
2018-09-12T06:24:16.065Z,101313.91
2018-09-12T06:26:44.562Z,101308.31
2018-09-12T06:29:12.964Z,101305.29
2018-09-12T06:31:41.340Z,101311.76
2018-09-12T06:34:10.320Z,101315.63
2018-09-12T06:36:38.786Z,101318.66
2018-09-12T06:39:09.634Z,101316.51
2018-09-12T06:41:38.064Z,101317.36
2018-09-12T06:44:06.560Z,101322.52
2018-09-12T06:46:35.112Z,101325.94
2018-09-12T06:49:04.681Z,101328.53
2018-09-12T06:51:33.186Z,101327.22
2018-09-12T06:54:01.710Z,101334.50
2018-09-12T06:56:30.202Z,101339.67
2018-09-12T06:58:58.663Z,101336.62
2018-09-12T07:01:27.064Z,101333.59
2018-09-12T07:03:55.427Z,101332.67
2018-09-12T07:06:23.954Z,101336.97
2018-09-12T07:08:52.358Z,101336.07
2018-09-12T07:11:20.767Z,101331.75
2018-09-12T07:13:49.167Z,101336.89
2018-09-12T07:16:17.563Z,101343.33
2018-09-12T07:18:45.978Z,101343.30
2018-09-12T07:21:14.432Z,101340.26
2018-09-12T07:23:42.840Z,101345.83
2018-09-12T07:26:11.257Z,101348.42
2018-09-12T07:28:39.600Z,101354.86
2018-09-12T07:31:08.036Z,101351.41
2018-09-12T07:33:36.504Z,101353.13
2018-09-12T07:36:04.964Z,101353.13
2018-09-12T07:38:33.381Z,101356.52
2018-09-12T07:41:01.846Z,101351.77
2018-09-12T07:43:30.240Z,101348.75
2018-09-12T07:45:58.689Z,101340.98
2018-09-12T07:48:27.115Z,101340.52
2018-09-12T07:50:57.032Z,101344.31
2018-09-12T07:53:25.440Z,101347.33
2018-09-12T07:55:53.969Z,101344.28
2018-09-12T07:58:22.332Z,101338.16
2018-09-12T08:00:50.759Z,101342.35
2018-09-12T08:03:19.197Z,101344.52
2018-09-12T08:05:47.621Z,101343.58
2018-09-12T08:08:16.042Z,101343.53
2018-09-12T08:10:44.464Z,101311.31
2018-09-12T08:13:12.885Z,101349.98
2018-09-12T08:15:41.413Z,101348.19
2018-09-12T08:18:09.788Z,101345.02
2018-09-12T08:20:38.281Z,101340.52
2018-09-12T08:23:06.919Z,101343.56
2018-09-12T08:25:35.310Z,101342.21
2018-09-12T08:28:03.756Z,101344.87
2018-09-12T08:30:32.829Z,101341.44
2018-09-12T08:33:02.139Z,101341.50
2018-09-12T08:35:31.301Z,101341.08
2018-09-12T08:37:59.686Z,101343.13
2018-09-12T08:40:28.074Z,101340.12
2018-09-12T08:42:56.484Z,101344.45
2018-09-12T08:45:24.944Z,101343.20
2018-09-12T08:47:53.443Z,101344.52
2018-09-12T08:50:23.999Z,101343.95
2018-09-12T08:52:53.614Z,101344.28
2018-09-12T08:55:22.035Z,101344.70
2018-09-12T08:57:50.531Z,101339.52
2018-09-12T09:00:19.635Z,101343.73
2018-09-12T09:02:48.041Z,101339.64
2018-09-12T09:05:16.544Z,101322.44
2018-09-12T09:07:44.992Z,101346.98
2018-09-12T09:10:13.470Z,101333.48
2018-09-12T09:12:41.905Z,101338.93
2018-09-12T09:15:10.300Z,101342.33
2018-09-12T09:17:38.701Z,101336.21
2018-09-12T09:20:07.221Z,101341.81
2018-09-12T09:22:35.664Z,101339.30
2018-09-12T09:25:04.355Z,101340.50
2018-09-12T09:27:32.817Z,101341.75
2018-09-12T09:30:01.324Z,101339.77
2018-09-12T09:32:29.704Z,101337.99
2018-09-12T09:34:58.148Z,101330.94
2018-09-12T09:37:26.475Z,101332.64
2018-09-12T09:39:54.903Z,101330.44
2018-09-12T09:42:23.349Z,101328.81
2018-09-12T09:44:52.214Z,101337.66
2018-09-12T09:47:20.649Z,101330.80
2018-09-12T09:49:51.724Z,101331.91
2018-09-12T09:52:20.141Z,101314.00
2018-09-12T09:54:48.607Z,101345.19
2018-09-12T09:57:17.005Z,101344.22
2018-09-12T09:59:45.509Z,101344.02
2018-09-12T10:03:22.940Z,101339.75
2018-09-12T10:05:56.681Z,101341.00
2018-09-12T10:08:28.746Z,101346.64
2018-09-12T10:10:57.525Z,101340.55
2018-09-12T10:13:25.996Z,101345.28
2018-09-12T10:15:54.465Z,101347.38
2018-09-12T10:18:22.896Z,101346.91
2018-09-12T10:20:51.348Z,101342.35
2018-09-12T10:23:21.827Z,101347.14
2018-09-12T10:25:50.427Z,101346.98
2018-09-12T10:28:19.008Z,101344.38
2018-09-12T10:30:47.456Z,101343.84
2018-09-12T10:33:16.089Z,101349.27
2018-09-12T10:35:44.538Z,101352.22
2018-09-12T10:38:12.916Z,101349.31
2018-09-12T10:40:41.706Z,101346.13
2018-09-12T10:43:10.309Z,101351.50
2018-09-12T10:45:38.728Z,101352.67
2018-09-12T10:48:07.376Z,101345.91
2018-09-12T10:50:35.792Z,101340.47
2018-09-12T10:53:04.216Z,101333.22
2018-09-12T10:55:32.890Z,101337.23
2018-09-12T10:58:01.315Z,101332.32
2018-09-12T11:00:29.828Z,101331.50
2018-09-12T11:02:58.240Z,101325.97
2018-09-12T11:05:26.744Z,101328.09
2018-09-12T11:07:55.165Z,101323.25
2018-09-12T11:10:24.132Z,101328.09
2018-09-12T11:12:52.526Z,101324.18
2018-09-12T11:15:20.919Z,101336.86
2018-09-12T11:17:49.352Z,101332.14
2018-09-12T11:20:17.800Z,101337.68
2018-09-12T11:22:46.244Z,101334.97
2018-09-12T11:25:14.642Z,101338.23
2018-09-12T11:27:43.062Z,101330.09
2018-09-12T11:30:11.500Z,101326.19
2018-09-12T11:32:39.947Z,101328.53
2018-09-12T11:35:09.192Z,101322.55
2018-09-12T11:37:37.577Z,101323.21
2018-09-12T11:40:06.037Z,101327.27
2018-09-12T11:42:34.420Z,101319.38
2018-09-12T11:45:03.326Z,101328.48
2018-09-12T11:47:31.762Z,101336.97
2018-09-12T11:50:01.970Z,101336.23
2018-09-12T11:52:31.485Z,101329.08
2018-09-12T11:55:01.135Z,101336.97
2018-09-12T11:57:30.295Z,101327.72
2018-09-12T11:59:58.873Z,101327.22
2018-09-12T12:02:27.332Z,101328.27
2018-09-12T12:04:55.741Z,101320.46
2018-09-12T12:07:24.186Z,101326.44
2018-09-12T12:09:52.683Z,101320.01
2018-09-12T12:12:21.105Z,101332.42
2018-09-12T12:14:49.607Z,101329.67
2018-09-12T12:17:18.657Z,101330.80
2018-09-12T12:19:47.277Z,101333.50
2018-09-12T12:22:15.685Z,101333.00
2018-09-12T12:24:45.075Z,101334.89
2018-09-12T12:27:13.499Z,101335.66
2018-09-12T12:29:41.944Z,101318.31
2018-09-12T12:32:10.339Z,101324.73
2018-09-12T12:34:38.818Z,101328.03
2018-09-12T12:37:07.229Z,101329.34
2018-09-12T12:39:35.580Z,101328.96
2018-09-12T12:42:04.030Z,101329.81
2018-09-12T12:44:32.796Z,101338.63
2018-09-12T12:47:01.506Z,101324.41
2018-09-12T12:49:30.049Z,101326.84
2018-09-12T12:51:59.261Z,101311.23
2018-09-12T12:54:27.709Z,101318.86
2018-09-12T12:56:56.255Z,101320.36
2018-09-12T12:59:24.693Z,101317.19
2018-09-12T13:01:53.088Z,101330.35
2018-09-12T13:04:21.621Z,101321.67
2018-09-12T13:06:50.043Z,101335.52
2018-09-12T13:09:18.481Z,101334.47
2018-09-12T13:11:46.929Z,101342.46
2018-09-12T13:14:15.375Z,101344.83
2018-09-12T13:16:44.045Z,101338.03
2018-09-12T13:19:12.529Z,101330.87
2018-09-12T13:21:41.066Z,101331.84
2018-09-12T13:24:09.359Z,101333.19
2018-09-12T13:26:37.792Z,101340.19
2018-09-12T13:29:06.300Z,101340.75
2018-09-12T13:31:34.787Z,101342.20
2018-09-12T13:34:03.189Z,101340.58
2018-09-12T13:36:31.631Z,101333.70
2018-09-12T13:39:00.105Z,101327.27
2018-09-12T13:41:28.530Z,101340.55
2018-09-12T13:43:56.962Z,101361.67
2018-09-12T13:46:25.398Z,101354.52
2018-09-12T13:48:53.820Z,101355.34
2018-09-12T13:51:22.250Z,101365.09
2018-09-12T13:53:50.680Z,101371.38
2018-09-12T13:56:19.305Z,101371.27
2018-09-12T13:58:47.753Z,101372.78
2018-09-12T14:01:16.204Z,101373.70
2018-09-12T14:03:44.922Z,101370.33
2018-09-12T14:06:13.426Z,101370.83
2018-09-12T14:08:41.931Z,101370.14
2018-09-12T14:11:10.347Z,101361.24
2018-09-12T14:13:38.757Z,101370.34
2018-09-12T14:16:07.491Z,101369.58
2018-09-12T14:18:36.964Z,101372.19
2018-09-12T14:21:05.378Z,101367.34
2018-09-12T14:23:33.827Z,101374.27
2018-09-12T14:26:02.244Z,101379.51
2018-09-12T14:28:30.729Z,101382.21
2018-09-12T14:30:59.295Z,101385.77
2018-09-12T14:33:27.766Z,101384.84
2018-09-12T14:35:56.224Z,101384.49
2018-09-12T14:38:25.488Z,101385.45
2018-09-12T14:40:53.885Z,101393.71
2018-09-12T14:43:22.273Z,101390.72
2018-09-12T14:45:50.726Z,101397.51
2018-09-12T14:48:19.126Z,101399.81
2018-09-12T14:50:47.543Z,101408.97
2018-09-12T14:53:15.917Z,101405.30
2018-09-12T14:55:44.458Z,101407.16
2018-09-12T14:58:12.853Z,101407.06
2018-09-12T15:00:41.541Z,101410.50
2018-09-12T15:03:10.094Z,101420.46
2018-09-12T15:05:38.582Z,101411.67
2018-09-12T15:08:07.024Z,101417.08
2018-09-12T15:10:35.492Z,101417.12
2018-09-12T15:13:03.885Z,101418.16
2018-09-12T15:15:32.321Z,101417.78
2018-09-12T15:18:01.753Z,101421.09
2018-09-12T15:20:30.176Z,101425.80
2018-09-12T15:22:58.684Z,101429.75
2018-09-12T15:25:27.183Z,101433.72
2018-09-12T15:27:55.631Z,101432.95
2018-09-12T15:30:24.064Z,101435.34
2018-09-12T15:32:52.567Z,101424.97
2018-09-12T15:35:21.128Z,101443.67
2018-09-12T15:37:49.557Z,101433.83
2018-09-12T15:40:18.001Z,101442.03
2018-09-12T15:42:46.449Z,101441.73
2018-09-12T15:45:14.940Z,101442.55
2018-09-12T15:47:43.358Z,101442.89
2018-09-12T15:50:11.878Z,101440.61
2018-09-12T15:52:40.929Z,101452.72
2018-09-12T15:55:09.450Z,101448.54
2018-09-12T15:57:37.855Z,101454.58
2018-09-12T16:00:06.427Z,101449.59
2018-09-12T16:02:34.928Z,101441.48
2018-09-12T16:05:03.701Z,101443.60
2018-09-12T16:07:32.315Z,101432.69
2018-09-12T16:10:00.840Z,101429.63
2018-09-12T16:12:29.274Z,101443.86
2018-09-12T16:14:58.093Z,101432.64
2018-09-12T16:17:26.502Z,101436.47
2018-09-12T16:19:55.108Z,101434.25
2018-09-12T16:22:23.688Z,101427.34
2018-09-12T16:24:52.159Z,101422.97
2018-09-12T16:27:21.800Z,101419.94
2018-09-12T16:29:50.265Z,101422.92
2018-09-12T16:32:18.768Z,101425.11
2018-09-12T16:34:47.248Z,101433.00
2018-09-12T16:37:15.631Z,101439.95
2018-09-12T16:39:44.017Z,101439.06
2018-09-12T16:42:12.517Z,101439.43
2018-09-12T16:44:40.953Z,101437.84
2018-09-12T16:47:09.381Z,101465.90
2018-09-12T16:49:37.840Z,101450.95
2018-09-12T16:52:06.303Z,101453.56
2018-09-12T16:54:34.747Z,101454.45
2018-09-12T16:57:03.228Z,101453.24
2018-09-12T16:59:31.654Z,101451.92
2018-09-12T17:02:00.061Z,101448.48
2018-09-12T17:04:28.486Z,101445.02
2018-09-12T17:06:56.897Z,101446.31
2018-09-12T17:09:25.370Z,101447.20
2018-09-12T17:11:53.855Z,101441.59
2018-09-12T17:14:22.887Z,101441.19
2018-09-12T17:16:51.295Z,101439.89
2018-09-12T17:19:20.862Z,101436.84
2018-09-12T17:21:49.645Z,101436.42
2018-09-12T17:24:18.016Z,101444.59
2018-09-12T17:26:46.446Z,101451.09
2018-09-12T17:29:14.920Z,101459.33
2018-09-12T17:31:43.375Z,101462.75
2018-09-12T17:34:11.809Z,101461.89
2018-09-12T17:36:40.315Z,101466.20
2018-09-12T17:39:09.687Z,101470.49
2018-09-12T17:41:38.108Z,101467.50
2018-09-12T17:44:06.619Z,101465.36
2018-09-12T17:46:35.136Z,101467.49
2018-09-12T17:49:03.694Z,101468.82
2018-09-12T17:51:32.496Z,101466.70
2018-09-12T17:54:01.492Z,101457.64
2018-09-12T17:56:29.968Z,101457.17
2018-09-12T17:58:58.417Z,101457.59
2018-09-12T18:01:26.862Z,101448.50
2018-09-12T18:03:55.374Z,101450.24
2018-09-12T18:06:23.812Z,101445.49
2018-09-12T18:08:52.229Z,101440.75
2018-09-12T18:11:21.280Z,101438.64
2018-09-12T18:13:49.772Z,101437.37
2018-09-12T18:16:18.241Z,101433.92
2018-09-12T18:18:46.848Z,101442.11
2018-09-12T18:21:15.357Z,101448.16
2018-09-12T18:23:44.446Z,101452.44
2018-09-12T18:26:12.912Z,101449.88
2018-09-12T18:28:41.350Z,101443.81
2018-09-12T18:31:09.813Z,101448.95
2018-09-12T18:33:38.241Z,101461.89
2018-09-12T18:36:06.895Z,101460.64
2018-09-12T18:38:35.481Z,101461.94
2018-09-12T18:41:03.908Z,101466.26
2018-09-12T18:43:32.410Z,101474.00
2018-09-12T18:46:00.852Z,101477.06
2018-09-12T18:48:29.310Z,101468.42
2018-09-12T18:50:57.842Z,101461.09
2018-09-12T18:53:26.265Z,101467.09
2018-09-12T18:55:54.778Z,101475.73
2018-09-12T18:58:23.250Z,101477.03
2018-09-12T19:00:51.656Z,101478.75
2018-09-12T19:03:20.140Z,101480.90
2018-09-12T19:05:49.288Z,101486.06
2018-09-12T19:08:17.738Z,101496.82
2018-09-12T19:10:46.165Z,101495.09
2018-09-12T19:13:14.658Z,101502.90
2018-09-12T19:15:43.037Z,101500.34
2018-09-12T19:18:11.519Z,101500.36
2018-09-12T19:20:39.900Z,101506.36
2018-09-12T19:23:08.403Z,101502.06
2018-09-12T19:25:36.816Z,101502.92
2018-09-12T19:28:05.298Z,101504.64
2018-09-12T19:30:34.674Z,101500.78
2018-09-12T19:33:03.076Z,101497.75
2018-09-12T19:35:31.513Z,101487.42
2018-09-12T19:37:59.911Z,101493.88
2018-09-12T19:40:28.349Z,101495.19
2018-09-12T19:42:56.787Z,101499.05
2018-09-12T19:45:25.244Z,101498.59
2018-09-12T19:47:53.719Z,101501.63
2018-09-12T19:50:22.341Z,101505.94
2018-09-12T19:52:50.777Z,101508.53
2018-09-12T19:55:19.545Z,101506.38
2018-09-12T19:57:48.008Z,101504.22
2018-09-12T20:00:18.051Z,101500.78
2018-09-12T20:02:46.557Z,101504.65
2018-09-12T20:05:15.046Z,101505.52
2018-09-12T20:07:43.556Z,101511.11
2018-09-12T20:10:12.021Z,101511.54
2018-09-12T20:12:40.520Z,101510.69
2018-09-12T20:15:08.984Z,101507.25
2018-09-12T20:17:37.983Z,101509.83
2018-09-12T20:20:06.810Z,101513.72
2018-09-12T20:22:35.320Z,101511.55
2018-09-12T20:25:03.785Z,101512.83
2018-09-12T20:27:32.248Z,101515.88
2018-09-12T20:30:00.719Z,101508.52
2018-09-12T20:32:29.926Z,101510.69
2018-09-12T20:34:58.380Z,101505.94
2018-09-12T20:37:26.784Z,101505.08
2018-09-12T20:39:55.192Z,101499.05
2018-09-12T20:42:23.586Z,101509.38
2018-09-12T20:44:51.995Z,101508.98
2018-09-12T20:47:20.440Z,101505.08
2018-09-12T20:49:48.955Z,101502.52
2018-09-12T20:52:18.324Z,101501.22
2018-09-12T20:54:46.776Z,101500.34
2018-09-12T20:57:16.129Z,101495.17
2018-09-12T20:59:45.520Z,101496.45
2018-09-12T21:02:13.962Z,101494.33
2018-09-12T21:04:42.381Z,101488.72
2018-09-12T21:07:10.850Z,101495.61
2018-09-12T21:09:39.329Z,101492.16
2018-09-12T21:12:08.080Z,101497.33
2018-09-12T21:14:36.563Z,101497.77
2018-09-12T21:17:05.011Z,101498.21
2018-09-12T21:19:34.855Z,101496.47
2018-09-12T21:22:03.289Z,101505.95
2018-09-12T21:24:31.771Z,101506.38
2018-09-12T21:27:01.167Z,101505.09
2018-09-12T21:29:29.695Z,101511.13
2018-09-12T21:31:58.111Z,101513.70
2018-09-12T21:34:26.913Z,101505.94
2018-09-12T21:36:56.205Z,101493.01
2018-09-12T21:39:24.573Z,101495.59
2018-09-12T21:41:57.168Z,101492.61
2018-09-12T21:44:25.573Z,101494.33
2018-09-12T21:46:53.957Z,101498.64
2018-09-12T21:49:22.392Z,101501.22
2018-09-12T21:51:52.719Z,101495.59
2018-09-12T21:54:24.211Z,101503.35
2018-09-12T21:56:52.814Z,101493.88
2018-09-12T21:59:25.990Z,101490.43
2018-09-12T22:01:54.846Z,101494.31
2018-09-12T22:04:23.356Z,101493.45
2018-09-12T22:06:51.786Z,101489.15
2018-09-12T22:09:20.215Z,101489.52
2018-09-12T22:11:48.697Z,101483.49
2018-09-12T22:14:17.106Z,101480.54
2018-09-12T22:16:45.571Z,101494.72
2018-09-12T22:19:13.988Z,101492.10
2018-09-12T22:21:42.397Z,101490.81
2018-09-12T22:24:10.839Z,101493.39
2018-09-12T22:26:39.645Z,101492.11
2018-09-12T22:29:08.686Z,101495.55
2018-09-12T22:31:37.048Z,101495.55
2018-09-12T22:34:13.219Z,101496.41
2018-09-12T22:36:44.840Z,101490.81
2018-09-12T22:39:13.257Z,101486.08
2018-09-12T22:41:41.684Z,101483.92
2018-09-12T22:44:10.087Z,101492.10
2018-09-12T22:46:38.560Z,101490.81
2018-09-12T22:49:06.958Z,101494.28
2018-09-12T22:51:35.354Z,101495.97
2018-09-12T22:54:04.041Z,101498.98
2018-09-12T22:56:32.423Z,101497.33
2018-09-12T22:59:00.942Z,101502.50
2018-09-12T23:01:30.327Z,101503.78
2018-09-12T23:03:58.765Z,101508.09
2018-09-12T23:06:27.186Z,101502.06
2018-09-12T23:08:55.669Z,101505.94
2018-09-12T23:11:24.086Z,101503.79
2018-09-12T23:13:52.550Z,101506.80
2018-09-12T23:16:20.916Z,101502.00
2018-09-12T23:18:49.924Z,101498.13
2018-09-12T23:21:18.333Z,101491.67
2018-09-12T23:23:46.713Z,101487.37
2018-09-12T23:26:15.152Z,101486.08
2018-09-12T23:28:43.571Z,101476.60
2018-09-12T23:31:12.007Z,101474.52
2018-09-12T23:33:40.748Z,101472.33
2018-09-12T23:36:09.143Z,101479.68
2018-09-12T23:38:37.589Z,101477.09
2018-09-12T23:41:06.357Z,101462.03
2018-09-12T23:43:35.166Z,101464.61
2018-09-12T23:46:03.559Z,101459.02
2018-09-12T23:48:32.287Z,101461.16
2018-09-12T23:51:00.695Z,101457.30
2018-09-12T23:53:29.325Z,101448.69
2018-09-12T23:55:57.748Z,101455.11
2018-09-12T23:58:27.037Z,101448.20
